Time;durP1;ratioP1;P1;durP2;ratioP2;P2;SDS_P1;SDS_P2;PMS_P1;PMS_P2;Temp;Humidity;BMP_temperature;BMP_pressure;BME280_temperature;BME280_humidity;BME280_pressure;Samples;Min_cycle;Max_cycle;Signal;HPM_P1;HPM_P2
2023/06/23 00:01:45;;;;;;;11.43;5.78;;;17.70;99.90;;;;;;4994693;28;20672;-70
2023/06/23 00:04:11;;;;;;;10.00;5.85;;;17.70;99.90;;;;;;4993987;28;20550;-71
2023/06/23 00:06:37;;;;;;;9.13;5.85;;;17.80;99.90;;;;;;4993984;28;20723;-71
2023/06/23 00:09:13;;;;;;;9.38;6.30;;;17.70;99.90;;;;;;4994354;28;20179;-70
2023/06/23 00:11:40;;;;;;;10.63;6.07;;;17.70;99.90;;;;;;4978521;28;20181;-70
2023/06/23 00:14:06;;;;;;;9.95;6.20;;;17.60;99.90;;;;;;4994091;28;20769;-70
2023/06/23 00:16:32;;;;;;;7.72;5.70;;;17.60;99.90;;;;;;4994090;28;20305;-71
2023/06/23 00:18:57;;;;;;;9.88;5.90;;;17.60;99.90;;;;;;4994235;28;20179;-70
2023/06/23 00:21:23;;;;;;;11.23;5.97;;;17.80;99.90;;;;;;4994209;28;20175;-69
2023/06/23 00:23:48;;;;;;;10.98;5.90;;;17.60;99.90;;;;;;4994295;28;20207;-69
2023/06/23 00:26:14;;;;;;;11.90;6.03;;;17.60;99.90;;;;;;4992753;28;20179;-69
2023/06/23 00:28:40;;;;;;;8.32;5.32;;;17.70;99.90;;;;;;4994035;28;20182;-70
2023/06/23 00:31:05;;;;;;;9.80;5.63;;;17.60;99.90;;;;;;4994248;28;20626;-70
2023/06/23 00:33:31;;;;;;;11.38;5.82;;;17.60;99.90;;;;;;4994156;28;20262;-69
2023/06/23 00:35:57;;;;;;;9.18;5.07;;;17.60;99.90;;;;;;4994836;28;20545;-69
2023/06/23 00:38:25;;;;;;;10.35;5.35;;;17.60;99.90;;;;;;5004701;28;20182;-69
2023/06/23 00:40:51;;;;;;;9.32;5.60;;;17.60;99.90;;;;;;5003915;28;20183;-71
2023/06/23 00:43:16;;;;;;;8.35;5.65;;;17.60;99.90;;;;;;4993632;28;20267;-71
2023/06/23 00:45:43;;;;;;;10.57;5.75;;;17.50;99.90;;;;;;4993795;28;20182;-71
2023/06/23 00:48:13;;;;;;;8.98;5.63;;;17.50;99.90;;;;;;4993711;28;20171;-70
2023/06/23 00:50:38;;;;;;;9.65;6.25;;;17.60;99.90;;;;;;4993634;28;20217;-69
2023/06/23 00:53:04;;;;;;;15.35;5.90;;;17.50;99.90;;;;;;4993778;28;20552;-69
2023/06/23 00:55:30;;;;;;;11.52;6.05;;;17.50;99.90;;;;;;4993714;28;20709;-70
2023/06/23 00:57:58;;;;;;;10.20;5.90;;;17.50;99.90;;;;;;4993587;28;20187;-70
2023/06/23 01:00:25;;;;;;;9.68;6.20;;;17.50;99.90;;;;;;4993607;28;20342;-69
2023/06/23 01:02:59;;;;;;;11.18;6.22;;;17.50;99.90;;;;;;4993411;28;20210;-68
2023/06/23 01:05:36;;;;;;;10.18;5.82;;;17.50;99.90;;;;;;4993449;28;20314;-70
2023/06/23 01:08:25;;;;;;;7.80;5.82;;;17.50;99.90;;;;;;4975578;28;20270;-71
2023/06/23 01:11:09;;;;;;;10.35;6.00;;;17.60;99.90;;;;;;4993309;28;20164;-72
2023/06/23 01:13:44;;;;;;;7.45;5.15;;;17.40;99.90;;;;;;4975879;28;20171;-71
2023/06/23 01:16:29;;;;;;;9.45;5.45;;;17.40;99.90;;;;;;4993150;28;20211;-71
2023/06/23 01:19:18;;;;;;;8.82;5.82;;;17.50;99.90;;;;;;4979691;28;20238;-71
2023/06/23 01:22:09;;;;;;;9.60;6.05;;;17.50;99.90;;;;;;4993262;28;20206;-71
2023/06/23 01:25:15;;;;;;;6.50;5.40;;;17.40;99.90;;;;;;4993485;28;20188;-72
2023/06/23 01:27:57;;;;;;;12.23;5.90;;;17.40;99.90;;;;;;4980294;28;20250;-68
2023/06/23 01:30:26;;;;;;;11.35;6.03;;;17.40;99.90;;;;;;4998280;28;20286;-72
2023/06/23 01:32:56;;;;;;;10.02;5.50;;;17.30;99.90;;;;;;4992920;28;20175;-71
2023/06/23 01:35:28;;;;;;;8.82;5.60;;;17.20;99.90;;;;;;4992789;28;20238;-71
2023/06/23 01:38:04;;;;;;;8.10;5.70;;;17.30;99.90;;;;;;4992443;28;20626;-71
2023/06/23 01:40:32;;;;;;;16.10;5.90;;;17.30;99.90;;;;;;4992324;28;20171;-71
2023/06/23 01:43:00;;;;;;;7.72;5.50;;;17.30;99.90;;;;;;4991929;28;20211;-71
2023/06/23 01:45:29;;;;;;;10.13;5.78;;;17.30;99.90;;;;;;4984573;28;20203;-71
2023/06/23 01:48:00;;;;;;;9.10;5.70;;;17.10;99.90;;;;;;4973242;28;20251;-72
2023/06/23 01:50:26;;;;;;;8.55;5.50;;;17.20;99.90;;;;;;4984334;28;20187;-72
2023/06/23 01:52:52;;;;;;;9.73;5.50;;;17.30;99.90;;;;;;4992489;28;20245;-72
2023/06/23 01:55:19;;;;;;;11.80;5.28;;;17.30;99.90;;;;;;4991250;28;20266;-71
2023/06/23 01:57:47;;;;;;;9.05;5.47;;;17.30;99.90;;;;;;4992457;28;20175;-71
2023/06/23 02:00:17;;;;;;;12.05;5.95;;;17.20;99.90;;;;;;4992625;28;20226;-73
2023/06/23 02:02:46;;;;;;;9.05;6.50;;;17.20;99.90;;;;;;4992387;28;20911;-73
2023/06/23 02:05:14;;;;;;;9.73;6.53;;;17.20;99.90;;;;;;4992092;28;20170;-72
2023/06/23 02:07:42;;;;;;;10.75;7.07;;;17.10;99.90;;;;;;4974792;28;20178;-71
2023/06/23 02:10:09;;;;;;;9.52;6.70;;;17.10;99.90;;;;;;4991931;28;20203;-72
2023/06/23 02:12:37;;;;;;;9.70;6.13;;;17.10;99.90;;;;;;4991728;28;20171;-73
2023/06/23 02:15:05;;;;;;;8.38;5.60;;;17.20;99.90;;;;;;4992204;28;20187;-72
2023/06/23 02:17:31;;;;;;;9.23;6.15;;;17.10;99.90;;;;;;4992097;28;20237;-72
2023/06/23 02:19:58;;;;;;;10.13;5.53;;;17.20;99.90;;;;;;4991825;28;20167;-72
2023/06/23 02:22:27;;;;;;;8.68;5.72;;;17.10;99.90;;;;;;4992156;28;20219;-72
2023/06/23 02:24:54;;;;;;;9.85;6.38;;;17.10;99.90;;;;;;4991907;28;20248;-72
2023/06/23 02:27:21;;;;;;;8.77;6.57;;;17.10;99.90;;;;;;4991850;28;20236;-72
2023/06/23 02:29:48;;;;;;;9.70;6.47;;;17.10;99.90;;;;;;4974691;28;20310;-72
2023/06/23 02:32:16;;;;;;;12.13;6.88;;;17.10;99.90;;;;;;4992051;28;20163;-73
2023/06/23 02:34:46;;;;;;;14.07;6.88;;;17.10;99.90;;;;;;4991751;28;20186;-70
2023/06/23 02:37:12;;;;;;;10.95;6.95;;;17.10;99.90;;;;;;4974456;28;20573;-69
2023/06/23 02:39:41;;;;;;;12.50;7.20;;;17.10;99.90;;;;;;4991863;28;20176;-70
2023/06/23 02:42:12;;;;;;;10.43;6.63;;;17.00;99.90;;;;;;4991495;28;20195;-69
2023/06/23 02:44:42;;;;;;;12.15;6.78;;;17.00;99.90;;;;;;4991870;28;20195;-68
2023/06/23 02:47:16;;;;;;;10.45;7.35;;;17.00;99.90;;;;;;4991703;28;20522;-69
2023/06/23 02:49:44;;;;;;;9.75;7.03;;;17.00;99.90;;;;;;4990907;28;20166;-68
2023/06/23 02:52:13;;;;;;;11.30;7.03;;;17.00;99.90;;;;;;4991668;28;20194;-70
2023/06/23 02:54:46;;;;;;;8.68;7.10;;;17.00;99.90;;;;;;4991275;28;20626;-69
2023/06/23 02:57:14;;;;;;;9.10;7.13;;;17.00;99.90;;;;;;5007297;28;20270;-70
2023/06/23 02:59:42;;;;;;;10.18;6.65;;;17.00;99.90;;;;;;4992516;28;20253;-69
2023/06/23 03:02:10;;;;;;;11.40;7.40;;;17.00;99.90;;;;;;5001999;28;20220;-69
2023/06/23 03:04:41;;;;;;;12.32;7.20;;;17.00;99.90;;;;;;4998985;28;20194;-69
2023/06/23 03:07:07;;;;;;;12.80;7.13;;;17.00;99.90;;;;;;5002946;28;20175;-69
2023/06/23 03:09:34;;;;;;;9.60;6.95;;;17.00;99.90;;;;;;5003531;28;20214;-69
2023/06/23 03:11:59;;;;;;;10.05;7.00;;;17.00;99.90;;;;;;4993897;28;20270;-69
2023/06/23 03:14:26;;;;;;;11.82;7.00;;;16.90;99.90;;;;;;4992372;28;20624;-70
2023/06/23 03:17:00;;;;;;;12.38;7.60;;;16.90;99.90;;;;;;4990384;28;20223;-70
2023/06/23 03:19:40;;;;;;;11.23;7.90;;;16.90;99.90;;;;;;5008673;28;20188;-69
2023/06/23 03:22:21;;;;;;;13.40;7.18;;;17.00;99.90;;;;;;5005622;28;20252;-70
2023/06/23 03:24:53;;;;;;;13.57;8.00;;;17.00;99.90;;;;;;4978730;28;20190;-70
2023/06/23 03:27:21;;;;;;;11.57;7.75;;;17.00;99.90;;;;;;4990272;28;20191;-70
2023/06/23 03:29:53;;;;;;;13.95;8.50;;;17.00;99.90;;;;;;4973806;28;20183;-70
2023/06/23 03:32:28;;;;;;;13.02;8.00;;;17.00;99.90;;;;;;4990591;28;20418;-69
2023/06/23 03:35:16;;;;;;;11.65;8.45;;;17.00;99.90;;;;;;4991822;28;20241;-69
2023/06/23 03:37:48;;;;;;;12.18;7.88;;;17.00;99.90;;;;;;4991116;28;20184;-70
2023/06/23 03:40:15;;;;;;;13.45;8.70;;;16.90;99.90;;;;;;5001037;28;20230;-69
2023/06/23 03:42:47;;;;;;;13.18;9.07;;;16.90;99.90;;;;;;4991101;28;20218;-68
2023/06/23 03:45:16;;;;;;;12.13;8.05;;;17.00;99.90;;;;;;4995028;28;20202;-67
2023/06/23 03:47:45;;;;;;;13.52;8.20;;;16.90;99.90;;;;;;5003355;28;20286;-68
2023/06/23 03:50:17;;;;;;;11.90;8.52;;;17.00;99.90;;;;;;5002050;28;20190;-68
2023/06/23 03:52:44;;;;;;;14.57;8.50;;;16.90;99.90;;;;;;4980276;28;20180;-71
2023/06/23 03:55:13;;;;;;;14.70;8.40;;;16.90;99.90;;;;;;4990961;28;20178;-67
2023/06/23 03:57:41;;;;;;;13.23;8.32;;;17.80;99.90;;;;;;5008925;28;20273;-67
2023/06/23 04:00:09;;;;;;;13.57;8.80;;;16.90;99.90;;;;;;4993695;28;20254;-67
2023/06/23 04:02:36;;;;;;;14.93;8.20;;;16.90;99.90;;;;;;4994613;28;20217;-67
2023/06/23 04:05:03;;;;;;;13.75;7.82;;;16.90;99.90;;;;;;4994486;28;20322;-67
2023/06/23 04:07:29;;;;;;;13.45;8.05;;;16.90;99.90;;;;;;4994098;28;20654;-65
2023/06/23 04:09:57;;;;;;;11.65;7.45;;;16.90;99.90;;;;;;4994595;28;20172;-66
2023/06/23 04:12:25;;;;;;;15.90;8.15;;;16.90;99.90;;;;;;4994562;28;20194;-68
2023/06/23 04:14:53;;;;;;;12.20;8.05;;;16.90;99.90;;;;;;4994228;28;20254;-67
2023/06/23 04:17:22;;;;;;;10.88;7.75;;;16.90;99.90;;;;;;4994116;28;20226;-67
2023/06/23 04:19:50;;;;;;;12.38;8.50;;;16.90;99.90;;;;;;4994253;28;20179;-67
2023/06/23 04:22:19;;;;;;;15.20;9.02;;;16.90;99.90;;;;;;4994246;28;20231;-67
2023/06/23 04:24:47;;;;;;;12.93;7.85;;;16.90;99.90;;;;;;4994232;28;20167;-68
2023/06/23 04:27:14;;;;;;;14.07;8.80;;;16.90;99.90;;;;;;4994347;28;20206;-68
2023/06/23 04:29:43;;;;;;;14.93;7.75;;;16.90;99.90;;;;;;4994266;28;20177;-68
2023/06/23 04:32:10;;;;;;;15.95;7.43;;;16.90;99.90;;;;;;4994075;28;20163;-67
2023/06/23 04:34:36;;;;;;;15.85;7.85;;;17.00;99.90;;;;;;4993386;28;20249;-68
2023/06/23 04:37:21;;;;;;;12.00;8.02;;;17.00;99.90;;;;;;4993153;28;20642;-68
2023/06/23 04:40:07;;;;;;;14.55;7.80;;;17.00;99.90;;;;;;4993537;28;20175;-68
2023/06/23 04:42:46;;;;;;;12.18;7.22;;;17.00;99.90;;;;;;4992951;28;20277;-67
2023/06/23 04:45:17;;;;;;;11.43;7.30;;;17.00;99.90;;;;;;4992941;28;20254;-70
2023/06/23 04:47:48;;;;;;;12.15;6.65;;;17.00;99.90;;;;;;4993351;28;20238;-70
2023/06/23 04:50:16;;;;;;;13.23;7.10;;;17.00;99.90;;;;;;4993636;28;20662;-74
2023/06/23 04:52:47;;;;;;;10.75;7.03;;;17.00;99.90;;;;;;4992624;28;20665;-72
2023/06/23 04:55:17;;;;;;;9.05;6.95;;;17.10;99.90;;;;;;4993155;28;20534;-73
2023/06/23 04:57:45;;;;;;;14.18;7.18;;;17.10;99.90;;;;;;4993268;28;20191;-73
2023/06/23 05:00:16;;;;;;;10.63;7.18;;;17.20;99.90;;;;;;4992909;28;20187;-73
2023/06/23 05:02:44;;;;;;;13.77;7.00;;;17.30;99.90;;;;;;4992816;28;20211;-73
2023/06/23 05:05:14;;;;;;;9.90;7.07;;;17.20;99.90;;;;;;4992533;28;20187;-73
2023/06/23 05:07:40;;;;;;;11.35;6.82;;;17.30;99.90;;;;;;4993478;28;20387;-74
2023/06/23 05:10:07;;;;;;;12.35;6.97;;;17.30;99.90;;;;;;4993429;28;20174;-73
2023/06/23 05:12:34;;;;;;;11.10;7.13;;;17.40;99.90;;;;;;4992559;28;20194;-74
2023/06/23 05:15:01;;;;;;;10.05;6.28;;;17.50;99.90;;;;;;4993073;28;20601;-74
2023/06/23 05:17:27;;;;;;;10.95;6.57;;;17.50;99.90;;;;;;4975812;28;20234;-73
2023/06/23 05:19:56;;;;;;;10.70;6.60;;;17.50;99.90;;;;;;4993187;28;20181;-73
2023/06/23 05:22:25;;;;;;;10.63;6.32;;;17.60;99.90;;;;;;4993290;28;20245;-73
2023/06/23 05:24:58;;;;;;;8.68;5.90;;;17.70;99.90;;;;;;4993347;28;20176;-73
2023/06/23 05:27:25;;;;;;;8.45;5.53;;;17.80;99.90;;;;;;4992999;28;20187;-69
2023/06/23 05:29:54;;;;;;;9.77;5.53;;;17.80;99.90;;;;;;4993142;28;20204;-69
2023/06/23 05:32:21;;;;;;;7.95;5.30;;;17.80;99.90;;;;;;4975443;28;20574;-69
2023/06/23 05:34:49;;;;;;;7.75;5.78;;;17.90;99.90;;;;;;4992890;28;20167;-69
2023/06/23 05:37:18;;;;;;;7.65;5.20;;;18.00;99.90;;;;;;4992906;28;20183;-69
2023/06/23 05:39:45;;;;;;;8.63;5.97;;;18.00;99.90;;;;;;4992871;28;20213;-68
2023/06/23 05:42:10;;;;;;;8.85;5.65;;;18.00;99.90;;;;;;4992727;28;20191;-68
2023/06/23 05:44:36;;;;;;;8.60;5.18;;;18.10;99.90;;;;;;4992662;28;20179;-66
2023/06/23 05:47:06;;;;;;;9.10;5.60;;;18.20;99.90;;;;;;4992559;28;20172;-66
2023/06/23 05:49:41;;;;;;;10.32;4.97;;;18.20;99.90;;;;;;4992413;28;20175;-66
2023/06/23 05:52:12;;;;;;;6.97;5.60;;;18.20;99.90;;;;;;4992486;28;20269;-67
2023/06/23 05:54:40;;;;;;;8.85;5.25;;;18.20;99.90;;;;;;4992449;28;20654;-67
2023/06/23 05:57:13;;;;;;;6.07;5.07;;;18.30;99.90;;;;;;4981932;28;20567;-68
2023/06/23 05:59:43;;;;;;;7.03;5.10;;;18.30;99.90;;;;;;4973103;28;20207;-66
2023/06/23 06:02:21;;;;;;;7.93;4.90;;;18.30;99.90;;;;;;4973136;28;20254;-66
2023/06/23 06:04:51;;;;;;;10.35;5.57;;;18.40;99.90;;;;;;4972983;28;20199;-66
2023/06/23 06:07:19;;;;;;;10.50;5.30;;;18.40;99.90;;;;;;4972593;28;20206;-66
2023/06/23 06:09:46;;;;;;;10.57;4.97;;;18.50;99.90;;;;;;4972446;28;20187;-66
2023/06/23 06:12:12;;;;;;;8.43;4.72;;;18.40;99.90;;;;;;4972745;28;20242;-67
2023/06/23 06:14:39;;;;;;;10.30;5.00;;;18.40;99.90;;;;;;4972633;28;20168;-69
2023/06/23 06:17:10;;;;;;;8.23;4.63;;;18.50;99.90;;;;;;4972529;28;20741;-69
2023/06/23 06:19:38;;;;;;;13.00;4.82;;;18.40;99.90;;;;;;4972457;28;20640;-69
2023/06/23 06:22:07;;;;;;;6.85;4.70;;;18.50;99.90;;;;;;4954787;28;20230;-69
2023/06/23 06:24:35;;;;;;;8.82;4.85;;;18.40;99.90;;;;;;4972558;28;20176;-69
2023/06/23 06:27:04;;;;;;;6.65;4.53;;;18.40;99.90;;;;;;4972524;28;20187;-69
2023/06/23 06:29:32;;;;;;;6.10;4.57;;;18.50;99.90;;;;;;4972951;28;20184;-75
2023/06/23 06:31:59;;;;;;;7.55;4.82;;;18.50;99.90;;;;;;4973161;28;20661;-74
2023/06/23 06:34:26;;;;;;;8.70;4.47;;;18.50;99.90;;;;;;4972556;28;20176;-75
2023/06/23 06:36:54;;;;;;;6.53;4.28;;;18.50;99.90;;;;;;4972479;28;20164;-73
2023/06/23 06:39:22;;;;;;;7.03;4.47;;;18.60;99.90;;;;;;4972571;28;20195;-74
2023/06/23 06:41:49;;;;;;;6.75;4.30;;;18.60;99.90;;;;;;4973250;28;20187;-71
2023/06/23 06:44:15;;;;;;;6.50;4.70;;;18.60;99.90;;;;;;4978630;28;20196;-73
2023/06/23 06:46:43;;;;;;;7.15;4.65;;;18.70;99.90;;;;;;4979102;28;20240;-73
2023/06/23 06:49:10;;;;;;;6.07;4.43;;;18.80;99.90;;;;;;4973112;28;20179;-71
2023/06/23 06:51:37;;;;;;;6.28;4.93;;;18.90;99.90;;;;;;4972074;28;20172;-72
2023/06/23 06:54:03;;;;;;;8.02;5.20;;;18.70;99.90;;;;;;4987620;28;20179;-71
2023/06/23 06:56:29;;;;;;;5.72;4.47;;;18.80;99.90;;;;;;4991498;28;20709;-70
2023/06/23 06:58:54;;;;;;;6.32;4.70;;;18.70;99.90;;;;;;4991566;28;20631;-70
2023/06/23 07:01:20;;;;;;;8.80;4.70;;;18.80;99.90;;;;;;4991547;28;20171;-71
2023/06/23 07:03:46;;;;;;;7.85;4.78;;;;;;;;;;4991329;28;20214;-71
2023/06/23 07:06:13;;;;;;;7.28;5.07;;;18.90;99.90;;;;;;4991464;28;20182;-81
2023/06/23 07:08:40;;;;;;;7.28;4.68;;;19.00;99.90;;;;;;4988211;28;20284;-69
2023/06/23 07:11:05;;;;;;;7.55;4.68;;;19.00;99.90;;;;;;5002429;28;20546;-71
2023/06/23 07:13:31;;;;;;;7.72;5.07;;;19.00;99.90;;;;;;4986364;28;20176;-70
2023/06/23 07:15:56;;;;;;;6.40;4.60;;;19.10;99.90;;;;;;4971722;28;20206;-70
2023/06/23 07:18:24;;;;;;;8.02;4.90;;;19.20;99.90;;;;;;4990635;28;20186;-71
2023/06/23 07:20:50;;;;;;;7.60;4.63;;;19.40;99.90;;;;;;4991320;28;20184;-74
2023/06/23 07:23:16;;;;;;;6.72;4.85;;;19.40;99.90;;;;;;4991269;28;20739;-75
2023/06/23 07:25:41;;;;;;;6.43;4.60;;;19.30;99.90;;;;;;4991441;28;20179;-76
2023/06/23 07:28:07;;;;;;;6.50;4.78;;;19.50;99.90;;;;;;4991258;28;20183;-74
2023/06/23 07:30:32;;;;;;;8.55;4.38;;;19.50;99.90;;;;;;4991477;28;20461;-72
2023/06/23 07:32:58;;;;;;;9.48;4.97;;;19.60;99.90;;;;;;4991408;28;20638;-75
2023/06/23 07:35:24;;;;;;;7.40;4.43;;;19.40;99.90;;;;;;5002046;28;20166;-71
2023/06/23 07:37:49;;;;;;;7.78;4.22;;;19.80;99.90;;;;;;5015028;28;20649;-71
2023/06/23 07:40:15;;;;;;;6.63;4.28;;;19.70;99.90;;;;;;5013060;28;20174;-71
2023/06/23 07:42:40;;;;;;;5.68;4.68;;;19.90;99.90;;;;;;5012072;28;20224;-70
2023/06/23 07:45:07;;;;;;;11.63;4.50;;;19.80;99.90;;;;;;4995197;28;20214;-70
2023/06/23 07:47:32;;;;;;;5.97;4.45;;;19.90;99.90;;;;;;4995031;28;20266;-71
2023/06/23 07:49:58;;;;;;;8.13;4.35;;;20.00;99.90;;;;;;4994539;28;20194;-70
2023/06/23 07:52:23;;;;;;;4.97;4.15;;;20.10;99.90;;;;;;4999343;28;20655;-70
2023/06/23 07:54:49;;;;;;;5.88;4.25;;;;;;;;;;5008971;28;20193;-70
2023/06/23 07:57:15;;;;;;;7.20;4.13;;;19.60;99.90;;;;;;5002583;28;20202;-70
2023/06/23 07:59:41;;;;;;;6.72;4.40;;;20.00;99.90;;;;;;4986213;28;20180;-70
2023/06/23 08:02:07;;;;;;;7.50;4.60;;;;;;;;;;4986316;28;20214;-70
2023/06/23 08:04:35;;;;;;;4.82;4.00;;;20.30;99.90;;;;;;4984674;28;20869;-68
2023/06/23 08:07:00;;;;;;;5.03;4.05;;;20.50;99.90;;;;;;4985375;28;20700;-69
2023/06/23 08:09:26;;;;;;;4.93;4.30;;;20.50;99.90;;;;;;4994720;28;20171;-70
2023/06/23 08:11:52;;;;;;;7.32;3.88;;;20.10;99.90;;;;;;4994597;28;20898;-71
2023/06/23 08:14:17;;;;;;;6.53;4.15;;;20.30;99.90;;;;;;4994623;28;20183;-70
2023/06/23 08:16:43;;;;;;;9.07;4.10;;;20.20;99.90;;;;;;4976718;28;20215;-69
2023/06/23 08:19:08;;;;;;;7.70;3.63;;;20.00;99.90;;;;;;4995040;28;20179;-71
2023/06/23 08:21:35;;;;;;;7.35;3.78;;;20.10;99.90;;;;;;4995046;28;20294;-71
2023/06/23 08:24:01;;;;;;;11.65;4.70;;;;;;;;;;4992324;28;20199;-69
2023/06/23 08:26:27;;;;;;;7.75;3.72;;;20.60;99.90;;;;;;4992506;28;20167;-70
2023/06/23 08:28:52;;;;;;;8.77;3.70;;;20.90;99.90;;;;;;4992437;28;20646;-70
2023/06/23 08:31:18;;;;;;;8.43;3.65;;;;;;;;;;4992767;28;20171;-70
2023/06/23 08:33:44;;;;;;;9.88;4.05;;;;;;;;;;4992492;28;20233;-71
2023/06/23 08:36:10;;;;;;;4.38;3.20;;;20.80;99.90;;;;;;4974955;28;20175;-70
2023/06/23 08:38:35;;;;;;;6.45;3.25;;;20.90;99.90;;;;;;4976355;28;20183;-71
2023/06/23 08:41:01;;;;;;;6.35;3.35;;;21.10;99.90;;;;;;4994948;28;20269;-71
2023/06/23 08:43:27;;;;;;;4.57;3.20;;;21.10;99.90;;;;;;4994020;28;20665;-71
2023/06/23 08:45:59;;;;;;;5.63;3.72;;;21.00;99.90;;;;;;4993906;28;20257;-70
2023/06/23 08:48:27;;;;;;;5.25;3.45;;;21.10;99.90;;;;;;4993575;28;20186;-70
2023/06/23 08:51:01;;;;;;;7.65;3.75;;;21.20;99.90;;;;;;4993449;28;20167;-71
2023/06/23 08:53:27;;;;;;;6.95;3.35;;;21.50;99.90;;;;;;5005378;28;20646;-70
2023/06/23 08:55:54;;;;;;;6.63;3.75;;;21.50;99.90;;;;;;4993652;28;20186;-70
2023/06/23 08:58:21;;;;;;;6.50;3.60;;;21.50;99.90;;;;;;5003397;28;20196;-70
2023/06/23 09:00:51;;;;;;;5.32;3.45;;;21.50;99.90;;;;;;5013170;28;20189;-71
2023/06/23 09:03:18;;;;;;;8.30;3.67;;;21.60;99.90;;;;;;5000557;28;20215;-71
2023/06/23 09:05:44;;;;;;;8.27;3.65;;;21.80;99.90;;;;;;4993443;28;20214;-69
2023/06/23 09:08:10;;;;;;;6.60;3.85;;;22.00;99.90;;;;;;4993392;28;20207;-70
2023/06/23 09:10:36;;;;;;;8.52;3.53;;;21.90;99.90;;;;;;4994389;28;20229;-67
2023/06/23 09:13:01;;;;;;;8.45;3.88;;;22.10;99.90;;;;;;4993447;28;20686;-70
2023/06/23 09:15:27;;;;;;;5.05;3.60;;;22.10;99.90;;;;;;4993458;28;20250;-70
2023/06/23 09:17:53;;;;;;;6.35;3.40;;;22.00;99.90;;;;;;4993191;28;20302;-73
2023/06/23 09:20:19;;;;;;;7.15;3.63;;;21.80;99.90;;;;;;4993555;28;20636;-69
2023/06/23 09:22:45;;;;;;;4.32;3.25;;;21.80;99.90;;;;;;4993192;28;20750;-71
2023/06/23 09:25:37;;;;;;;4.70;3.00;;;21.90;99.90;;;;;;4994191;28;20179;-70
2023/06/23 09:28:03;;;;;;;4.20;3.08;;;21.80;99.90;;;;;;5005675;28;20176;-72
2023/06/23 09:30:35;;;;;;;4.53;2.92;;;21.90;99.90;;;;;;4994836;28;20299;-74
2023/06/23 09:33:07;;;;;;;4.55;3.03;;;21.80;99.90;;;;;;4994165;28;20226;-73
2023/06/23 09:35:33;;;;;;;3.72;3.00;;;;;;;;;;4992577;28;20210;-72
2023/06/23 09:38:02;;;;;;;4.47;2.97;;;22.10;99.90;;;;;;4993149;28;20638;-73
2023/06/23 09:40:28;;;;;;;3.22;2.50;;;22.10;99.90;;;;;;4992990;28;20175;-71
2023/06/23 09:43:00;;;;;;;4.63;2.80;;;22.20;99.90;;;;;;4992978;28;20207;-70
2023/06/23 09:45:26;;;;;;;5.70;3.38;;;22.50;99.90;;;;;;4992848;28;20171;-73
2023/06/23 09:47:52;;;;;;;6.07;3.10;;;22.10;99.90;;;;;;4992816;28;20177;-68
2023/06/23 09:50:21;;;;;;;9.20;3.30;;;22.70;99.90;;;;;;4992108;28;20178;-70
2023/06/23 09:52:46;;;;;;;6.00;2.95;;;23.10;99.90;;;;;;4992782;28;20167;-69
2023/06/23 09:55:12;;;;;;;6.30;3.08;;;23.30;99.90;;;;;;4992910;28;20179;-70
2023/06/23 09:57:38;;;;;;;6.95;3.15;;;23.30;99.90;;;;;;4976309;28;20710;-70
2023/06/23 10:00:08;;;;;;;5.32;3.17;;;23.40;99.90;;;;;;5007868;28;20228;-70
2023/06/23 10:02:38;;;;;;;6.07;3.00;;;23.50;99.90;;;;;;5011606;28;20673;-67
2023/06/23 10:05:05;;;;;;;5.05;3.53;;;23.50;99.90;;;;;;4992868;28;20182;-70
2023/06/23 10:07:32;;;;;;;5.45;3.20;;;23.50;99.90;;;;;;5011950;28;20244;-69
2023/06/23 10:10:01;;;;;;;5.78;3.33;;;23.40;99.90;;;;;;5000317;28;20179;-69
2023/06/23 10:12:28;;;;;;;4.55;2.90;;;23.50;99.90;;;;;;4992308;28;20716;-71
2023/06/23 10:14:56;;;;;;;3.72;2.55;;;23.40;99.90;;;;;;4992455;28;20180;-69
2023/06/23 10:17:22;;;;;;;3.70;2.90;;;23.40;99.90;;;;;;4992234;28;20324;-70
2023/06/23 10:19:49;;;;;;;7.13;3.50;;;23.70;99.90;;;;;;4992119;28;20799;-70
2023/06/23 10:22:20;;;;;;;5.95;2.90;;;24.10;99.90;;;;;;4992160;28;20230;-69
2023/06/23 10:24:49;;;;;;;3.63;2.85;;;25.10;99.90;;;;;;4992194;28;20206;-69
2023/06/23 10:27:24;;;;;;;7.53;3.30;;;25.00;99.90;;;;;;4991438;28;20585;-71
2023/06/23 10:29:52;;;;;;;3.97;2.60;;;25.10;99.90;;;;;;5003602;28;20270;-70
2023/06/23 10:32:22;;;;;;;4.28;3.30;;;24.00;99.90;;;;;;4991824;28;20232;-69
2023/06/23 10:34:51;;;;;;;4.93;3.58;;;24.00;99.90;;;;;;4991846;28;20179;-69
2023/06/23 10:37:23;;;;;;;4.28;3.30;;;24.00;99.90;;;;;;4991696;28;20178;-70
2023/06/23 10:39:55;;;;;;;4.57;3.10;;;24.30;99.90;;;;;;4991865;28;20175;-68
2023/06/23 10:42:23;;;;;;;5.40;3.50;;;24.10;99.90;;;;;;4991694;28;20568;-68
2023/06/23 10:44:49;;;;;;;12.65;3.58;;;24.50;99.90;;;;;;4991576;28;20179;-68
2023/06/23 10:47:16;;;;;;;7.75;4.03;;;24.40;99.90;;;;;;4991568;28;20171;-68
2023/06/23 10:49:43;;;;;;;13.90;3.40;;;24.60;99.90;;;;;;4987275;28;20180;-68
2023/06/23 10:52:10;;;;;;;8.18;3.38;;;24.90;99.90;;;;;;4990572;28;20179;-68
2023/06/23 10:54:35;;;;;;;8.00;3.60;;;25.20;99.90;;;;;;4990977;28;20186;-69
2023/06/23 10:57:12;;;;;;;8.77;3.35;;;24.80;99.90;;;;;;4994272;28;20182;-69
2023/06/23 10:59:42;;;;;;;5.68;3.47;;;24.70;99.90;;;;;;4970397;28;20175;-68
2023/06/23 11:02:10;;;;;;;5.32;3.15;;;25.00;99.90;;;;;;4958202;28;20171;-69
2023/06/23 11:04:38;;;;;;;6.10;3.25;;;24.80;99.90;;;;;;4991804;28;20183;-68
2023/06/23 11:07:09;;;;;;;5.57;2.95;;;25.20;99.90;;;;;;4991581;28;20171;-69
2023/06/23 11:09:58;;;;;;;7.70;3.00;;;25.40;99.90;;;;;;4991272;28;20206;-70
2023/06/23 11:12:33;;;;;;;5.13;2.80;;;25.70;99.90;;;;;;4991184;28;20206;-73
2023/06/23 11:15:16;;;;;;;7.28;2.75;;;25.70;99.90;;;;;;4991128;28;20189;-67
2023/06/23 11:17:50;;;;;;;6.90;2.83;;;25.00;99.90;;;;;;4991399;28;20277;-66
2023/06/23 11:20:22;;;;;;;7.82;2.65;;;25.10;99.90;;;;;;4991431;28;20641;-68
2023/06/23 11:23:00;;;;;;;3.03;2.42;;;26.00;99.90;;;;;;4991441;28;20207;-69
2023/06/23 11:25:31;;;;;;;4.93;2.72;;;26.50;99.90;;;;;;4982369;28;20175;-69
2023/06/23 11:28:34;;;;;;;6.53;2.72;;;26.70;99.90;;;;;;4990190;28;20171;-70
2023/06/23 11:30:59;;;;;;;4.70;2.55;;;26.80;99.90;;;;;;4990282;28;20171;-70
2023/06/23 11:33:32;;;;;;;2.65;2.17;;;26.70;99.90;;;;;;4990041;28;20297;-70
2023/06/23 11:36:04;;;;;;;3.75;2.20;;;27.30;99.90;;;;;;4990770;28;20167;-71
2023/06/23 11:38:31;;;;;;;3.53;2.47;;;26.80;99.90;;;;;;4990972;28;20257;-70
2023/06/23 11:40:58;;;;;;;6.15;2.80;;;26.40;99.90;;;;;;4973379;28;20175;-69
2023/06/23 11:43:24;;;;;;;3.03;2.45;;;26.50;99.90;;;;;;4990595;28;20226;-70
2023/06/23 11:45:56;;;;;;;5.38;3.00;;;26.10;99.90;;;;;;4991036;28;20164;-70
2023/06/23 11:48:28;;;;;;;3.55;2.60;;;26.00;99.90;;;;;;4991307;28;20250;-70
2023/06/23 11:50:55;;;;;;;8.00;2.63;;;26.50;99.90;;;;;;4991247;28;20171;-70
2023/06/23 11:53:20;;;;;;;3.10;2.50;;;26.70;99.90;;;;;;4991192;28;20229;-70
2023/06/23 11:55:48;;;;;;;3.70;2.53;;;27.20;99.90;;;;;;4991118;28;20589;-72
2023/06/23 11:58:14;;;;;;;5.65;2.75;;;27.10;99.90;;;;;;4991335;28;20194;-71
2023/06/23 12:00:40;;;;;;;5.28;2.70;;;27.10;99.90;;;;;;4990965;28;20544;-71
2023/06/23 12:03:05;;;;;;;4.70;2.40;;;27.90;99.90;;;;;;4990661;28;20215;-70
2023/06/23 12:05:35;;;;;;;5.32;3.10;;;27.10;99.90;;;;;;4991005;28;20592;-69
2023/06/23 12:08:00;;;;;;;6.10;2.85;;;26.10;99.90;;;;;;4990224;28;20187;-69
2023/06/23 12:10:27;;;;;;;2.97;2.63;;;26.70;99.90;;;;;;4991310;28;20688;-68
2023/06/23 12:12:53;;;;;;;3.95;2.65;;;26.90;99.90;;;;;;4991516;28;20183;-70
2023/06/23 12:15:22;;;;;;;4.68;3.10;;;26.60;99.90;;;;;;4991685;28;20198;-70
2023/06/23 12:17:47;;;;;;;5.32;2.67;;;26.50;99.90;;;;;;4991191;28;20226;-71
2023/06/23 12:20:17;;;;;;;5.38;2.40;;;27.00;99.90;;;;;;4990722;28;20179;-70
2023/06/23 12:22:43;;;;;;;5.35;2.30;;;27.10;99.90;;;;;;4993228;28;20199;-70
2023/06/23 12:25:09;;;;;;;5.13;2.83;;;27.40;99.90;;;;;;4994677;28;20175;-70
2023/06/23 12:27:37;;;;;;;3.70;2.45;;;27.80;99.90;;;;;;4994579;28;20181;-71
2023/06/23 12:30:19;;;;;;;2.97;2.40;;;27.80;99.90;;;;;;4994121;28;20203;-70
2023/06/23 12:32:45;;;;;;;4.05;2.72;;;27.90;99.90;;;;;;4993888;28;20179;-71
2023/06/23 12:35:11;;;;;;;5.00;2.60;;;27.80;99.90;;;;;;4994183;28;20174;-69
2023/06/23 12:37:48;;;;;;;4.43;2.60;;;28.50;99.90;;;;;;4994264;28;20179;-70
2023/06/23 12:40:34;;;;;;;4.05;2.70;;;28.70;99.90;;;;;;4994123;28;20179;-70
2023/06/23 12:43:01;;;;;;;4.82;2.83;;;28.40;99.90;;;;;;4996199;28;20206;-70
2023/06/23 12:45:27;;;;;;;3.60;2.45;;;27.70;99.90;;;;;;4996314;28;20167;-70
2023/06/23 12:47:56;;;;;;;5.00;2.33;;;26.40;99.90;;;;;;4997923;28;20177;-69
2023/06/23 12:50:26;;;;;;;6.07;2.65;;;27.10;99.90;;;;;;4991404;28;20190;-69
2023/06/23 12:52:53;;;;;;;9.23;3.30;;;27.30;99.90;;;;;;4974976;28;20655;-70
2023/06/23 12:55:18;;;;;;;4.03;2.58;;;27.50;99.90;;;;;;4982209;28;20258;-70